Time;durP1;ratioP1;P1;durP2;ratioP2;P2;SDS_P1;SDS_P2;PMS_P1;PMS_P2;Temp;Humidity;BMP_temperature;BMP_pressure;BME280_temperature;BME280_humidity;BME280_pressure;Samples;Min_cycle;Max_cycle;Signal;HPM_P1;HPM_P2
2022/03/18 00:01:22;;;;;;;30.92;8.93;;;4.30;99.90;;;;;;5095163;28;20039;-67
2022/03/18 00:03:48;;;;;;;27.45;7.47;;;4.40;99.90;;;;;;5097112;28;20039;-67
2022/03/18 00:06:16;;;;;;;21.45;7.30;;;4.40;99.90;;;;;;5088373;28;20036;-67
2022/03/18 00:08:42;;;;;;;22.45;6.60;;;4.40;99.90;;;;;;5105499;28;20044;-68
2022/03/18 00:11:08;;;;;;;23.52;6.32;;;4.40;99.90;;;;;;5124823;28;20048;-67
2022/03/18 00:13:34;;;;;;;22.65;6.78;;;4.40;99.90;;;;;;5125199;28;20521;-67
2022/03/18 00:16:00;;;;;;;23.20;7.03;;;4.30;99.90;;;;;;5106279;28;20036;-68
2022/03/18 00:18:26;;;;;;;18.67;6.65;;;4.20;99.90;;;;;;5104622;28;20043;-67
2022/03/18 00:20:52;;;;;;;22.67;6.07;;;4.30;99.90;;;;;;5102793;28;20631;-67
2022/03/18 00:23:17;;;;;;;16.67;6.55;;;4.20;99.90;;;;;;5104581;28;20090;-67
2022/03/18 00:25:43;;;;;;;24.33;7.25;;;4.30;99.90;;;;;;5089903;28;20110;-67
2022/03/18 00:28:09;;;;;;;23.38;8.02;;;4.40;99.90;;;;;;5083447;28;20055;-67
2022/03/18 00:30:34;;;;;;;21.42;7.93;;;4.20;99.90;;;;;;5084576;28;20040;-68
2022/03/18 00:33:00;;;;;;;25.77;7.07;;;4.30;99.90;;;;;;5095093;28;20048;-67
2022/03/18 00:35:26;;;;;;;20.98;7.47;;;4.20;99.90;;;;;;5089586;28;20047;-68
2022/03/18 00:37:52;;;;;;;19.42;7.00;;;4.20;99.90;;;;;;5082439;28;20044;-67
2022/03/18 00:40:18;;;;;;;21.00;6.82;;;4.30;99.90;;;;;;5084194;28;20215;-67
2022/03/18 00:42:43;;;;;;;22.05;7.97;;;4.30;99.90;;;;;;5084163;28;20067;-67
2022/03/18 00:45:09;;;;;;;23.60;9.00;;;4.10;99.90;;;;;;5096039;28;20040;-67
2022/03/18 00:53:04;;;;;;;28.27;9.50;;;4.00;99.90;;;;;;5102343;28;20059;-67
2022/03/18 00:55:30;;;;;;;23.83;9.57;;;4.00;99.90;;;;;;5089232;28;20045;-67
2022/03/18 00:57:56;;;;;;;22.25;8.93;;;3.90;99.90;;;;;;5084071;28;20070;-67
2022/03/18 01:00:22;;;;;;;18.70;8.88;;;3.90;99.90;;;;;;5084296;28;20044;-67
2022/03/18 01:02:47;;;;;;;26.20;9.32;;;4.00;99.90;;;;;;5082776;28;20123;-67
2022/03/18 01:05:13;;;;;;;22.02;9.02;;;4.00;99.90;;;;;;5084310;28;20055;-68
2022/03/18 01:07:39;;;;;;;34.28;10.00;;;3.90;99.90;;;;;;5083505;28;20049;-67
2022/03/18 01:10:05;;;;;;;19.75;8.00;;;3.90;99.90;;;;;;5083991;28;20040;-67
2022/03/18 01:12:30;;;;;;;23.63;8.85;;;3.90;99.90;;;;;;5086629;28;20048;-67
2022/03/18 01:14:56;;;;;;;20.15;8.95;;;3.90;99.90;;;;;;5104670;28;20040;-67
2022/03/18 01:17:22;;;;;;;18.27;8.50;;;3.90;99.90;;;;;;5103740;28;20058;-68
2022/03/18 01:19:48;;;;;;;31.98;9.23;;;3.90;99.90;;;;;;5104080;28;20052;-68
2022/03/18 01:22:13;;;;;;;21.83;9.15;;;3.90;99.90;;;;;;5102728;28;20411;-67
2022/03/18 01:24:39;;;;;;;20.52;8.43;;;3.90;99.90;;;;;;5083913;28;20040;-68
2022/03/18 01:27:06;;;;;;;20.38;8.00;;;3.90;99.90;;;;;;5083599;28;20044;-67
2022/03/18 01:29:32;;;;;;;19.27;7.38;;;3.80;99.90;;;;;;5083980;28;20507;-68
2022/03/18 01:31:59;;;;;;;19.20;8.05;;;3.90;99.90;;;;;;5083249;28;20044;-67
2022/03/18 01:34:25;;;;;;;20.10;7.47;;;3.90;99.90;;;;;;5100182;28;20044;-68
2022/03/18 01:36:51;;;;;;;21.90;7.13;;;3.90;99.90;;;;;;5103454;28;20040;-67
2022/03/18 01:39:17;;;;;;;23.75;7.22;;;4.00;99.90;;;;;;5105431;28;20072;-68
2022/03/18 01:41:43;;;;;;;23.45;7.60;;;4.10;99.90;;;;;;5107850;28;20054;-68
2022/03/18 01:44:12;;;;;;;21.88;7.57;;;4.00;99.90;;;;;;5091527;28;20089;-68
2022/03/18 01:46:39;;;;;;;17.30;7.35;;;4.00;99.90;;;;;;5086900;28;20078;-67
2022/03/18 01:49:05;;;;;;;17.58;7.13;;;4.20;99.90;;;;;;5087490;28;20041;-67
2022/03/18 01:51:32;;;;;;;21.48;7.10;;;4.30;99.90;;;;;;5086497;28;20055;-67
2022/03/18 01:56:43;;;;;;;17.85;8.57;;;4.30;99.90;;;;;;5107281;28;20079;-68
2022/03/18 01:59:12;;;;;;;27.08;9.75;;;4.20;99.90;;;;;;5107954;28;20032;-68
2022/03/18 02:01:38;;;;;;;17.63;7.85;;;4.10;99.90;;;;;;5107125;28;20051;-68
2022/03/18 02:04:04;;;;;;;28.05;7.72;;;4.00;99.90;;;;;;5090201;28;20037;-68
2022/03/18 02:06:30;;;;;;;22.15;8.30;;;4.00;99.90;;;;;;5086634;28;20044;-67
2022/03/18 02:08:56;;;;;;;15.80;7.75;;;3.90;99.90;;;;;;5086916;28;20079;-68
2022/03/18 02:11:22;;;;;;;16.13;8.15;;;3.90;99.90;;;;;;5089893;28;20384;-68
2022/03/18 02:13:51;;;;;;;18.13;7.13;;;4.00;99.90;;;;;;5092917;28;20043;-68
2022/03/18 02:16:17;;;;;;;14.85;7.43;;;4.10;99.90;;;;;;5086693;28;20091;-68
2022/03/18 02:18:43;;;;;;;19.67;6.97;;;4.20;99.90;;;;;;5085428;28;20052;-68
2022/03/18 02:21:12;;;;;;;24.58;9.27;;;4.20;99.90;;;;;;5096024;28;20040;-68
2022/03/18 02:23:39;;;;;;;21.70;7.22;;;4.20;99.90;;;;;;5107245;28;20079;-68
2022/03/18 02:26:04;;;;;;;16.88;6.78;;;4.10;99.90;;;;;;5107124;28;20111;-68
2022/03/18 02:28:30;;;;;;;24.67;8.50;;;4.10;99.90;;;;;;5106837;28;20083;-68
2022/03/18 02:30:55;;;;;;;17.98;6.45;;;4.30;99.90;;;;;;5099143;28;20079;-68
2022/03/18 02:33:21;;;;;;;18.05;6.55;;;4.30;99.90;;;;;;5086288;28;20051;-68
2022/03/18 02:35:54;;;;;;;16.38;6.13;;;4.40;99.90;;;;;;5086262;28;20067;-68
2022/03/18 02:38:20;;;;;;;14.13;6.53;;;4.50;99.90;;;;;;5086524;28;20044;-68
2022/03/18 02:40:46;;;;;;;14.70;5.88;;;4.50;99.90;;;;;;5091967;28;20048;-67
2022/03/18 02:43:11;;;;;;;15.10;6.18;;;4.50;99.90;;;;;;5106474;28;20420;-68
2022/03/18 02:45:37;;;;;;;21.17;6.38;;;4.50;99.90;;;;;;5104665;28;20103;-68
2022/03/18 02:48:03;;;;;;;16.63;5.75;;;4.40;99.90;;;;;;5104991;28;20044;-68
2022/03/18 02:50:29;;;;;;;19.80;7.38;;;4.40;99.90;;;;;;5085638;28;20366;-67
2022/03/18 02:52:55;;;;;;;19.45;8.00;;;4.20;99.90;;;;;;5085587;28;20103;-67
2022/03/18 02:55:21;;;;;;;16.15;7.25;;;4.20;99.90;;;;;;5086489;28;20501;-68
2022/03/18 02:57:47;;;;;;;18.63;7.88;;;4.00;99.90;;;;;;5085818;28;20041;-67
2022/03/18 03:00:13;;;;;;;15.93;7.30;;;4.00;99.90;;;;;;5104361;28;20050;-68
2022/03/18 03:02:39;;;;;;;19.88;8.40;;;4.00;99.90;;;;;;5105373;28;20071;-69
2022/03/18 03:07:59;;;;;;;18.02;7.65;;;3.80;99.90;;;;;;5105443;28;20058;-67
2022/03/18 03:10:28;;;;;;;22.02;9.05;;;3.80;99.90;;;;;;5084650;28;20094;-66
2022/03/18 03:12:55;;;;;;;25.10;8.40;;;3.70;99.90;;;;;;5085776;28;20072;-68
2022/03/18 03:15:20;;;;;;;20.80;8.52;;;3.70;99.90;;;;;;5085689;28;20110;-67
2022/03/18 03:17:46;;;;;;;17.45;8.15;;;3.60;99.90;;;;;;5085090;28;20048;-68
2022/03/18 03:20:12;;;;;;;16.85;8.30;;;3.60;99.90;;;;;;5103886;28;20062;-69
2022/03/18 03:22:37;;;;;;;19.30;8.00;;;3.60;99.90;;;;;;5105357;28;20066;-68
2022/03/18 03:25:04;;;;;;;18.80;8.30;;;3.60;99.90;;;;;;5106092;28;20066;-68
2022/03/18 03:27:31;;;;;;;15.07;7.95;;;3.60;99.90;;;;;;5105554;28;20079;-68
2022/03/18 03:30:03;;;;;;;15.60;6.53;;;3.60;99.90;;;;;;5089627;28;20409;-68
2022/03/18 03:32:28;;;;;;;16.33;7.55;;;3.60;99.90;;;;;;5084984;28;20294;-68
2022/03/18 03:34:55;;;;;;;20.25;8.05;;;3.60;99.90;;;;;;5084108;28;20045;-67
2022/03/18 03:37:21;;;;;;;18.80;7.72;;;3.70;99.90;;;;;;5088574;28;20040;-67
2022/03/18 03:39:47;;;;;;;15.48;8.30;;;3.90;99.90;;;;;;5105532;28;20390;-68
2022/03/18 03:42:13;;;;;;;14.43;7.55;;;3.90;99.90;;;;;;5105356;28;20040;-67
2022/03/18 03:44:38;;;;;;;17.35;7.10;;;3.90;99.90;;;;;;5105493;28;20476;-67
2022/03/18 03:47:04;;;;;;;16.92;7.30;;;3.90;99.90;;;;;;5102681;28;20043;-67
2022/03/18 03:49:30;;;;;;;20.25;7.93;;;4.00;99.90;;;;;;5083712;28;20128;-67
2022/03/18 03:51:56;;;;;;;20.55;7.22;;;3.90;99.90;;;;;;5096050;28;20055;-67
2022/03/18 03:54:21;;;;;;;12.35;6.95;;;4.00;99.90;;;;;;5105525;28;20119;-67
2022/03/18 03:56:47;;;;;;;17.40;9.02;;;4.00;99.90;;;;;;5103668;28;20069;-68
2022/03/18 03:59:13;;;;;;;14.63;7.40;;;4.00;99.90;;;;;;5085348;28;20044;-68
2022/03/18 04:01:38;;;;;;;25.08;7.97;;;4.10;99.90;;;;;;5083586;28;20055;-67
2022/03/18 04:04:04;;;;;;;18.33;7.97;;;4.10;99.90;;;;;;5084800;28;20040;-68
2022/03/18 04:06:31;;;;;;;20.38;7.93;;;4.10;99.90;;;;;;5084357;28;20059;-68
2022/03/18 04:08:56;;;;;;;23.58;8.25;;;4.30;99.90;;;;;;5100619;28;20047;-68
2022/03/18 04:11:22;;;;;;;11.43;6.50;;;4.40;99.90;;;;;;5104657;28;20076;-68
2022/03/18 04:13:48;;;;;;;18.13;6.88;;;4.60;99.90;;;;;;5104983;28;20433;-68
2022/03/18 04:16:15;;;;;;;21.40;8.10;;;4.70;99.90;;;;;;5088200;28;20581;-68
2022/03/18 04:18:41;;;;;;;16.23;7.03;;;4.80;99.90;;;;;;5084426;28;20058;-68
2022/03/18 04:21:07;;;;;;;15.23;8.70;;;5.00;99.90;;;;;;5082828;28;20118;-68
2022/03/18 04:23:32;;;;;;;13.85;7.50;;;5.00;99.90;;;;;;5084479;28;20071;-68
2022/03/18 04:25:58;;;;;;;14.10;7.22;;;5.00;99.90;;;;;;5097006;28;20096;-67
2022/03/18 04:28:23;;;;;;;23.15;7.55;;;5.10;99.90;;;;;;5104761;28;20602;-69
2022/03/18 04:30:49;;;;;;;16.73;7.93;;;5.10;99.90;;;;;;5104375;28;20093;-69
2022/03/18 04:33:15;;;;;;;24.45;7.80;;;5.10;99.90;;;;;;5104454;28;20044;-66
2022/03/18 04:35:40;;;;;;;14.95;8.10;;;5.10;99.90;;;;;;5095033;28;20032;-67
2022/03/18 04:38:06;;;;;;;16.35;6.97;;;5.10;99.90;;;;;;5083757;28;20075;-68
2022/03/18 04:40:32;;;;;;;17.45;6.97;;;5.10;99.90;;;;;;5085537;28;20090;-68
2022/03/18 04:42:58;;;;;;;15.88;7.22;;;5.20;99.90;;;;;;5104373;28;20048;-68
2022/03/18 04:45:23;;;;;;;17.40;8.32;;;5.20;99.90;;;;;;5097388;28;20693;-68
2022/03/18 04:47:49;;;;;;;20.02;8.50;;;5.20;99.90;;;;;;5084206;28;20041;-68
2022/03/18 04:50:15;;;;;;;22.10;7.65;;;5.20;99.90;;;;;;5083918;28;20041;-67
2022/03/18 04:52:40;;;;;;;17.45;7.85;;;5.30;99.90;;;;;;5083469;28;20561;-68
2022/03/18 04:55:07;;;;;;;20.52;8.48;;;5.30;99.90;;;;;;5088140;28;20119;-68
2022/03/18 04:57:33;;;;;;;15.50;8.05;;;5.20;99.90;;;;;;5104248;28;20048;-68
2022/03/18 04:59:58;;;;;;;17.05;8.63;;;5.10;99.90;;;;;;5104431;28;20043;-68
2022/03/18 05:02:24;;;;;;;21.20;8.50;;;5.00;99.90;;;;;;5104113;28;20036;-68
2022/03/18 05:04:50;;;;;;;20.98;8.98;;;5.00;99.90;;;;;;5100108;28;20100;-68
2022/03/18 05:07:17;;;;;;;21.13;9.93;;;4.90;99.90;;;;;;5083526;28;20049;-68
2022/03/18 05:09:45;;;;;;;19.13;8.73;;;4.80;99.90;;;;;;5084132;28;20080;-68
2022/03/18 05:12:12;;;;;;;;;;;4.70;99.90;;;;;;5083049;28;20170;-68
2022/03/18 05:14:38;;;;;;;29.45;9.68;;;4.70;99.90;;;;;;5089241;28;20051;-67
2022/03/18 05:17:06;;;;;;;16.98;9.32;;;4.70;99.90;;;;;;5106666;28;20059;-67
2022/03/18 05:19:31;;;;;;;16.40;9.43;;;4.70;99.90;;;;;;5108318;28;20048;-68
2022/03/18 05:21:57;;;;;;;19.80;10.02;;;4.60;99.90;;;;;;5107405;28;20070;-68
2022/03/18 05:24:25;;;;;;;18.65;10.48;;;4.50;99.90;;;;;;5108167;28;20131;-68
2022/03/18 05:26:52;;;;;;;18.50;10.07;;;4.50;99.90;;;;;;5105716;28;20052;-67
2022/03/18 05:29:18;;;;;;;24.08;11.85;;;4.40;99.90;;;;;;5108390;28;20044;-69
2022/03/18 05:31:43;;;;;;;20.73;11.52;;;4.40;99.90;;;;;;5107368;28;20043;-68
2022/03/18 05:34:09;;;;;;;20.67;12.15;;;4.40;99.90;;;;;;5107937;28;20040;-68
2022/03/18 05:36:35;;;;;;;21.33;10.90;;;4.40;99.90;;;;;;5094580;28;20601;-68
2022/03/18 05:39:00;;;;;;;16.70;11.40;;;4.50;99.90;;;;;;5087535;28;20047;-68
2022/03/18 05:41:26;;;;;;;20.00;11.02;;;4.50;99.90;;;;;;5102958;28;20048;-68
2022/03/18 05:43:52;;;;;;;22.77;12.70;;;4.40;99.90;;;;;;5087720;28;20041;-68
2022/03/18 05:46:17;;;;;;;22.42;13.15;;;4.40;99.90;;;;;;5095159;28;20052;-69
2022/03/18 05:48:43;;;;;;;26.55;11.70;;;4.40;99.90;;;;;;5107249;28;20043;-68
2022/03/18 05:51:08;;;;;;;24.10;12.20;;;4.40;99.90;;;;;;5106831;28;20056;-68
2022/03/18 05:53:34;;;;;;;22.20;12.52;;;4.40;99.90;;;;;;5107017;28;20131;-68
2022/03/18 05:58:45;;;;;;;21.75;13.45;;;4.40;99.90;;;;;;5087304;28;20503;-69
2022/03/18 06:01:10;;;;;;;25.17;13.70;;;4.50;99.90;;;;;;5087109;28;20044;-67
2022/03/18 06:03:37;;;;;;;32.28;13.63;;;4.50;99.90;;;;;;5086747;28;20070;-67
2022/03/18 06:06:04;;;;;;;28.70;14.77;;;4.40;99.90;;;;;;5106773;28;20038;-69
2022/03/18 06:13:58;;;;;;;20.98;13.23;;;4.30;99.90;;;;;;5087029;28;20132;-69
2022/03/18 06:16:24;;;;;;;23.80;13.75;;;4.20;99.90;;;;;;5085826;28;20076;-68
2022/03/18 06:18:50;;;;;;;28.75;13.90;;;4.10;99.90;;;;;;5086627;28;20082;-68
2022/03/18 06:21:16;;;;;;;23.58;14.88;;;4.30;99.90;;;;;;5097521;28;20090;-67
2022/03/18 06:23:42;;;;;;;29.38;15.15;;;4.30;99.90;;;;;;5106947;28;20047;-68
2022/03/18 06:26:08;;;;;;;30.08;14.38;;;4.40;99.90;;;;;;5105685;28;20067;-68
2022/03/18 06:28:34;;;;;;;29.13;16.05;;;4.40;99.90;;;;;;5106946;28;20411;-68
2022/03/18 06:31:00;;;;;;;28.73;14.40;;;4.50;99.90;;;;;;5107001;28;20072;-68
2022/03/18 06:33:29;;;;;;;22.17;13.57;;;4.60;99.90;;;;;;5103816;28;20108;-68
2022/03/18 06:35:55;;;;;;;21.77;13.80;;;4.60;99.90;;;;;;5106124;28;20079;-68
2022/03/18 06:38:20;;;;;;;34.28;14.00;;;4.60;99.90;;;;;;5107003;28;20040;-68
2022/03/18 06:40:46;;;;;;;25.42;13.75;;;4.60;99.90;;;;;;5106540;28;20043;-68
2022/03/18 06:43:12;;;;;;;22.55;14.20;;;4.70;99.90;;;;;;5104720;28;20037;-68
2022/03/18 06:45:38;;;;;;;28.45;14.50;;;4.80;99.90;;;;;;5094827;28;20127;-68
2022/03/18 06:48:04;;;;;;;28.23;15.45;;;4.80;99.90;;;;;;5104955;28;20050;-68
2022/03/18 06:50:29;;;;;;;22.85;13.38;;;4.70;99.90;;;;;;5106351;28;20043;-68
2022/03/18 06:52:56;;;;;;;29.85;16.38;;;4.70;99.90;;;;;;5105463;28;20063;-68
2022/03/18 06:55:21;;;;;;;26.70;14.90;;;4.90;99.90;;;;;;5101381;28;20248;-68
2022/03/18 06:57:47;;;;;;;32.05;15.25;;;4.90;99.90;;;;;;5095029;28;20669;-69
2022/03/18 07:00:13;;;;;;;32.28;15.18;;;5.00;99.90;;;;;;5093325;28;20115;-68
2022/03/18 07:02:39;;;;;;;24.83;13.98;;;5.10;99.90;;;;;;5105571;28;20052;-69
2022/03/18 07:05:05;;;;;;;31.95;15.32;;;5.10;99.90;;;;;;5098589;28;20044;-68
2022/03/18 07:07:31;;;;;;;25.15;14.13;;;5.20;99.90;;;;;;5085156;28;20041;-69
2022/03/18 07:09:56;;;;;;;28.60;14.55;;;5.30;99.90;;;;;;5090401;28;20040;-68
2022/03/18 07:12:22;;;;;;;36.70;14.93;;;5.40;99.90;;;;;;5106106;28;20075;-68
2022/03/18 07:14:48;;;;;;;23.48;13.68;;;5.60;99.90;;;;;;5089440;28;20044;-67
2022/03/18 07:19:57;;;;;;;24.00;14.55;;;5.90;99.90;;;;;;5090520;28;20139;-68
2022/03/18 07:22:25;;;;;;;23.27;13.73;;;5.90;99.90;;;;;;5091958;28;20048;-69
2022/03/18 07:24:50;;;;;;;27.88;14.90;;;6.00;99.90;;;;;;5085669;28;20411;-69
2022/03/18 07:27:16;;;;;;;28.95;13.90;;;6.10;99.90;;;;;;5095710;28;20051;-68
2022/03/18 07:29:42;;;;;;;23.55;13.13;;;6.20;99.90;;;;;;5104246;28;20064;-68
2022/03/18 07:32:08;;;;;;;22.75;12.25;;;6.30;99.90;;;;;;5094623;28;20565;-67
2022/03/18 07:34:34;;;;;;;23.05;13.07;;;6.50;99.90;;;;;;5092658;28;20052;-68
2022/03/18 07:36:59;;;;;;;26.65;14.05;;;6.60;99.90;;;;;;5103495;28;20048;-68
2022/03/18 07:39:25;;;;;;;35.08;12.57;;;6.70;99.90;;;;;;5095128;28;20040;-68
2022/03/18 07:41:51;;;;;;;26.73;13.02;;;6.80;99.90;;;;;;5089703;28;20048;-68
2022/03/18 07:44:16;;;;;;;24.25;12.27;;;6.90;99.90;;;;;;5091672;28;20062;-68
2022/03/18 07:46:42;;;;;;;25.25;12.20;;;7.00;99.90;;;;;;5094460;28;20053;-67
2022/03/18 07:49:08;;;;;;;25.63;11.77;;;7.10;99.90;;;;;;5103335;28;20100;-67
2022/03/18 07:51:33;;;;;;;24.35;11.82;;;7.20;99.90;;;;;;5093886;28;20064;-69
2022/03/18 07:54:00;;;;;;;24.85;12.07;;;7.30;99.90;;;;;;5096625;28;20048;-69
2022/03/18 07:56:26;;;;;;;24.17;11.55;;;7.30;99.90;;;;;;5096318;28;20431;-68
2022/03/18 07:58:51;;;;;;;32.47;13.02;;;7.40;99.90;;;;;;5098477;28;20052;-68
2022/03/18 08:01:17;;;;;;;26.25;12.45;;;7.50;99.90;;;;;;5104391;28;20126;-69
2022/03/18 08:03:43;;;;;;;26.25;11.55;;;7.60;99.90;;;;;;5104738;28;20054;-69
2022/03/18 08:06:08;;;;;;;20.08;11.63;;;7.70;99.90;;;;;;5093426;28;20047;-69
2022/03/18 08:08:34;;;;;;;28.33;11.63;;;7.80;99.90;;;;;;5107007;28;20040;-69
2022/03/18 08:11:00;;;;;;;23.95;11.13;;;7.90;99.90;;;;;;5099588;28;20032;-69
2022/03/18 08:13:29;;;;;;;22.58;10.38;;;8.00;99.90;;;;;;5093793;28;20048;-69
2022/03/18 08:15:55;;;;;;;24.70;11.02;;;8.10;99.90;;;;;;5098206;28;21367;-69
2022/03/18 08:18:21;;;;;;;23.52;11.38;;;8.20;99.90;;;;;;5105585;28;20032;-68
2022/03/18 08:20:53;;;;;;;25.40;12.10;;;8.40;99.90;;;;;;5096109;28;20353;-68
2022/03/18 08:23:19;;;;;;;22.75;10.80;;;8.50;99.90;;;;;;5093544;28;20174;-68
2022/03/18 08:25:45;;;;;;;23.08;11.10;;;8.70;99.90;;;;;;5085240;28;20059;-69
2022/03/18 08:28:11;;;;;;;23.30;10.63;;;8.80;99.90;;;;;;5084470;28;20053;-69
2022/03/18 08:30:38;;;;;;;21.67;10.77;;;8.90;99.90;;;;;;5088893;28;20297;-68
2022/03/18 08:33:04;;;;;;;27.37;11.07;;;9.00;99.90;;;;;;5095400;28;20045;-68
2022/03/18 08:35:30;;;;;;;21.73;10.82;;;9.30;99.90;;;;;;5095200;28;20044;-68
2022/03/18 08:37:56;;;;;;;23.00;10.30;;;9.40;99.90;;;;;;5095695;28;20044;-68
2022/03/18 08:40:23;;;;;;;21.88;9.05;;;9.40;99.90;;;;;;5098769;28;20040;-68
2022/03/18 08:42:49;;;;;;;23.77;9.23;;;9.50;99.90;;;;;;5095332;28;20104;-68
2022/03/18 08:45:16;;;;;;;28.00;9.43;;;9.60;99.90;;;;;;5103792;28;20044;-68
2022/03/18 08:47:43;;;;;;;29.23;10.60;;;9.60;99.90;;;;;;5084204;28;20040;-68
2022/03/18 08:50:09;;;;;;;18.95;8.25;;;9.70;99.90;;;;;;5103181;28;20036;-68
2022/03/18 08:52:35;;;;;;;22.90;8.68;;;9.90;99.90;;;;;;5097161;28;20082;-68
2022/03/18 08:55:01;;;;;;;22.13;9.27;;;9.90;99.90;;;;;;5096015;28;20055;-68
2022/03/18 08:57:28;;;;;;;26.65;10.00;;;10.00;99.90;;;;;;5094857;28;20055;-68
2022/03/18 08:59:56;;;;;;;23.58;8.85;;;10.00;99.90;;;;;;5090178;28;20083;-68
2022/03/18 09:02:21;;;;;;;23.30;9.73;;;10.00;99.90;;;;;;5101234;28;20545;-68
2022/03/18 09:04:48;;;;;;;19.33;9.10;;;10.20;99.90;;;;;;5108796;28;20040;-68
2022/03/18 09:07:14;;;;;;;19.75;8.70;;;10.40;99.90;;;;;;5102044;28;20181;-68
2022/03/18 09:09:40;;;;;;;27.75;8.93;;;10.60;99.90;;;;;;5100717;28;20051;-68
2022/03/18 09:12:06;;;;;;;24.90;8.98;;;10.70;99.90;;;;;;5100968;28;20063;-68
2022/03/18 09:14:32;;;;;;;28.33;9.40;;;10.70;99.90;;;;;;5104412;28;20115;-69
2022/03/18 09:16:57;;;;;;;22.88;8.73;;;10.80;99.90;;;;;;5101670;28;20514;-69
2022/03/18 09:19:23;;;;;;;22.15;8.57;;;10.50;99.90;;;;;;5095747;28;20076;-69
2022/03/18 09:21:49;;;;;;;18.98;8.60;;;10.50;99.90;;;;;;5090683;28;20080;-67
2022/03/18 09:24:15;;;;;;;20.45;9.25;;;10.70;99.90;;;;;;5094332;28;20047;-68
2022/03/18 09:26:41;;;;;;;22.52;8.45;;;10.70;99.90;;;;;;5090736;28;20048;-68
2022/03/18 09:29:07;;;;;;;18.73;8.80;;;10.70;99.90;;;;;;5098413;28;20600;-68
2022/03/18 09:31:33;;;;;;;22.33;8.15;;;10.80;99.90;;;;;;5096823;28;20044;-68
2022/03/18 09:33:58;;;;;;;16.90;7.40;;;11.10;99.90;;;;;;5092184;28;20562;-68
2022/03/18 09:36:25;;;;;;;19.10;7.70;;;11.00;99.90;;;;;;5099205;28;20044;-69
2022/03/18 09:38:51;;;;;;;20.25;6.82;;;11.00;99.90;;;;;;5094313;28;20040;-68
2022/03/18 09:41:17;;;;;;;18.42;6.82;;;11.20;99.90;;;;;;5086484;28;20045;-67
2022/03/18 09:43:43;;;;;;;25.50;8.48;;;11.30;99.90;;;;;;5099971;28;20032;-68
2022/03/18 09:46:11;;;;;;;23.73;7.05;;;11.40;99.90;;;;;;5100140;28;20100;-68
2022/03/18 09:48:38;;;;;;;24.08;7.57;;;11.50;99.90;;;;;;5090608;28;20458;-69
2022/03/18 09:51:04;;;;;;;16.50;6.38;;;11.70;99.90;;;;;;5100294;28;20063;-68
2022/03/18 09:53:30;;;;;;;25.23;8.25;;;11.80;99.90;;;;;;5103327;28;20330;-68
2022/03/18 09:55:55;;;;;;;24.13;7.28;;;11.70;99.90;;;;;;5091483;28;20504;-68
2022/03/18 09:58:22;;;;;;;30.20;7.32;;;11.70;99.90;;;;;;5088872;28;20047;-68
2022/03/18 10:00:51;;;;;;;18.58;7.60;;;11.70;99.90;;;;;;5098184;28;20112;-68
2022/03/18 10:03:19;;;;;;;22.52;7.78;;;11.60;99.90;;;;;;5101631;28;20068;-68
2022/03/18 10:05:53;;;;;;;15.85;7.32;;;11.50;99.90;;;;;;5098970;28;20044;-68
2022/03/18 10:08:21;;;;;;;21.33;6.55;;;11.80;99.90;;;;;;5093174;28;21605;-68
2022/03/18 10:10:48;;;;;;;20.63;7.97;;;11.70;99.90;;;;;;5110914;28;20166;-68
2022/03/18 10:13:16;;;;;;;23.40;7.93;;;11.90;99.90;;;;;;5109283;28;20492;-68
2022/03/18 10:15:43;;;;;;;25.80;8.20;;;12.20;99.90;;;;;;5107148;28;20297;-67
2022/03/18 10:18:13;;;;;;;17.55;6.38;;;12.20;99.90;;;;;;5106596;28;20464;-69
2022/03/18 10:20:41;;;;;;;22.02;8.25;;;12.30;99.90;;;;;;5097662;28;20052;-68
2022/03/18 10:23:16;;;;;;;16.25;7.20;;;12.40;99.90;;;;;;5105242;28;20508;-69
2022/03/18 10:25:56;;;;;;;20.15;6.88;;;12.60;99.90;;;;;;5102023;28;20056;-68
2022/03/18 10:28:35;;;;;;;20.52;7.10;;;12.60;99.90;;;;;;5106332;28;20043;-69
2022/03/18 10:31:21;;;;;;;20.50;6.70;;;12.60;99.90;;;;;;5106704;28;20095;-68
2022/03/18 10:39:30;;;;;;;19.08;7.00;;;12.50;99.90;;;;;;5093419;28;20133;-68
2022/03/18 10:42:00;;;;;;;27.77;7.50;;;12.50;99.90;;;;;;5102062;28;20052;-68
2022/03/18 10:44:31;;;;;;;26.00;6.53;;;12.50;99.90;;;;;;5106532;28;20047;-68
2022/03/18 10:46:58;;;;;;;19.75;6.50;;;12.40;99.90;;;;;;5103515;28;20056;-68
2022/03/18 10:49:24;;;;;;;23.80;6.72;;;12.50;99.90;;;;;;5094432;28;20054;-68
2022/03/18 10:51:52;;;;;;;21.83;7.38;;;12.70;99.90;;;;;;5104153;28;20079;-68
2022/03/18 10:54:25;;;;;;;22.80;6.30;;;12.90;99.90;;;;;;5097365;28;20047;-68
2022/03/18 10:56:57;;;;;;;15.50;5.68;;;12.90;99.90;;;;;;5099914;28;20480;-69
2022/03/18 10:59:24;;;;;;;16.02;6.20;;;13.00;99.90;;;;;;5102953;28;20515;-68
2022/03/18 11:01:51;;;;;;;;;;;13.10;99.90;;;;;;5096079;28;20051;-67
2022/03/18 11:04:17;;;;;;;27.48;7.32;;;13.10;99.90;;;;;;5096943;28;19994;-68
2022/03/18 11:07:29;;;;;;;33.45;6.78;;;13.30;99.90;;;;;;5098605;28;20036;-68
2022/03/18 11:11:06;;;;;;;24.42;7.13;;;13.40;99.90;;;;;;5092369;28;20051;-67
2022/03/18 11:12:22;;;;;;;28.48;7.20;;;13.50;99.90;;;;;;5094932;28;20040;-67
2022/03/18 11:14:53;;;;;;;18.52;6.65;;;13.40;99.90;;;;;;5101073;28;20052;-66
2022/03/18 11:17:20;;;;;;;21.30;5.88;;;13.50;99.90;;;;;;5097302;28;20037;-67
2022/03/18 11:19:46;;;;;;;21.25;5.88;;;13.40;99.90;;;;;;5102240;28;20054;-67
2022/03/18 11:22:14;;;;;;;13.73;4.60;;;13.40;99.90;;;;;;5103951;28;20380;-67
2022/03/18 11:24:41;;;;;;;15.65;5.22;;;13.40;99.90;;;;;;5100755;28;20044;-67
2022/03/18 11:27:07;;;;;;;20.20;5.63;;;13.40;99.90;;;;;;5093502;28;20044;-67
2022/03/18 11:29:34;;;;;;;15.95;5.30;;;13.40;99.90;;;;;;5096171;28;20035;-68
2022/03/18 11:32:12;;;;;;;17.88;5.72;;;13.40;99.90;;;;;;5097422;28;20047;-66
2022/03/18 11:34:52;;;;;;;17.42;4.97;;;13.70;99.90;;;;;;5102980;28;20067;-67
2022/03/18 11:37:19;;;;;;;25.02;5.43;;;13.60;99.90;;;;;;5095332;28;20048;-67
2022/03/18 11:39:46;;;;;;;17.10;4.40;;;13.90;99.90;;;;;;5103062;28;20044;-66
2022/03/18 11:42:19;;;;;;;20.30;5.80;;;14.00;99.90;;;;;;5105500;28;20139;-67
2022/03/18 11:44:56;;;;;;;19.55;5.60;;;14.00;99.90;;;;;;5100530;28;20091;-67
2022/03/18 11:47:33;;;;;;;31.55;6.35;;;14.10;99.90;;;;;;5097054;28;20032;-67
2022/03/18 11:50:00;;;;;;;20.15;5.57;;;14.30;99.90;;;;;;5104091;28;20074;-69
2022/03/18 11:52:26;;;;;;;18.33;6.35;;;14.70;99.90;;;;;;5085966;28;20080;-68
2022/03/18 11:54:54;;;;;;;17.90;5.07;;;15.50;99.90;;;;;;5085316;28;20056;-69
2022/03/18 11:57:33;;;;;;;12.60;3.88;;;15.90;99.90;;;;;;5085532;28;20107;-69
2022/03/18 12:00:05;;;;;;;17.10;3.97;;;16.00;99.90;;;;;;5101347;28;20044;-67
2022/03/18 12:02:38;;;;;;;22.35;6.72;;;15.70;99.90;;;;;;5099698;28;20464;-66
2022/03/18 12:05:05;;;;;;;24.08;5.47;;;15.80;99.90;;;;;;5095397;28;20044;-66
2022/03/18 12:07:47;;;;;;;18.40;4.88;;;15.40;99.90;;;;;;5090252;28;20037;-68
2022/03/18 12:10:15;;;;;;;15.38;4.85;;;15.80;99.90;;;;;;5105121;28;20055;-67
2022/03/18 12:12:46;;;;;;;11.60;3.90;;;15.90;99.90;;;;;;5098457;28;20056;-69
2022/03/18 12:15:20;;;;;;;15.65;4.85;;;15.80;99.90;;;;;;5098354;28;20047;-68
2022/03/18 12:17:46;;;;;;;16.23;4.82;;;16.20;99.90;;;;;;5097172;28;20044;-68
2022/03/18 12:20:27;;;;;;;17.77;3.85;;;16.00;99.90;;;;;;5099579;28;20040;-69
2022/03/18 12:22:54;;;;;;;23.27;3.88;;;16.20;99.30;;;;;;5090746;28;20062;-69
2022/03/18 12:25:22;;;;;;;19.67;4.47;;;16.50;99.40;;;;;;5088526;28;20044;-69
2022/03/18 12:27:49;;;;;;;19.70;4.15;;;16.50;98.80;;;;;;5095565;28;20614;-69
2022/03/18 12:30:17;;;;;;;14.55;4.32;;;17.30;99.70;;;;;;5102963;28;20085;-67
2022/03/18 12:32:54;;;;;;;22.63;5.60;;;17.10;98.60;;;;;;5090152;28;20407;-67
2022/03/18 12:35:30;;;;;;;19.60;4.65;;;17.00;96.00;;;;;;5101769;28;20043;-67
2022/03/18 12:38:07;;;;;;;17.83;4.22;;;17.40;97.60;;;;;;5096905;28;20044;-67
2022/03/18 12:40:40;;;;;;;16.40;3.95;;;17.50;95.60;;;;;;5098777;28;20115;-68
2022/03/18 12:43:05;;;;;;;20.75;4.60;;;17.70;96.00;;;;;;5099494;28;20047;-67
2022/03/18 12:45:36;;;;;;;18.73;4.97;;;17.30;93.40;;;;;;5088815;28;20064;-69
2022/03/18 12:48:07;;;;;;;15.85;3.90;;;16.90;94.20;;;;;;5097845;28;20145;-69
2022/03/18 12:50:42;;;;;;;21.02;5.07;;;16.40;95.00;;;;;;5099090;28;20040;-67
2022/03/18 12:53:30;;;;;;;21.88;5.15;;;16.70;96.80;;;;;;5100876;28;20075;-67
2022/03/18 12:55:58;;;;;;;15.30;4.18;;;16.50;96.00;;;;;;5097378;28;20051;-67
2022/03/18 12:58:27;;;;;;;18.08;4.55;;;16.60;95.80;;;;;;5092401;28;20044;-67
2022/03/18 13:00:56;;;;;;;12.73;3.65;;;16.70;94.70;;;;;;5087083;28;20044;-67
2022/03/18 13:03:25;;;;;;;17.63;4.15;;;16.80;95.40;;;;;;5087983;28;20036;-70
2022/03/18 13:05:53;;;;;;;14.65;3.78;;;16.50;95.50;;;;;;5098641;28;20055;-68
2022/03/18 13:08:19;;;;;;;25.58;4.25;;;17.00;95.70;;;;;;5097292;28;20047;-69